sensor_id;sensor_type;location;lat;lon;timestamp;temperature;humidity
33328;DHT22;19692;52.998;9.116;2024-01-10T00:02:05;-5.90;99.90
33328;DHT22;19692;52.998;9.116;2024-01-10T00:04:31;-6.00;99.90
33328;DHT22;19692;52.998;9.116;2024-01-10T00:06:57;-6.00;99.90
33328;DHT22;19692;52.998;9.116;2024-01-10T00:09:23;-5.90;99.90
33328;DHT22;19692;52.998;9.116;2024-01-10T00:11:48;-5.90;99.90
33328;DHT22;19692;52.998;9.116;2024-01-10T00:14:14;-6.00;99.90
33328;DHT22;19692;52.998;9.116;2024-01-10T00:16:40;-6.00;99.90
33328;DHT22;19692;52.998;9.116;2024-01-10T00:19:06;-6.00;99.90
33328;DHT22;19692;52.998;9.116;2024-01-10T00:21:31;-5.90;99.90
33328;DHT22;19692;52.998;9.116;2024-01-10T00:23:57;-6.00;99.90
33328;DHT22;19692;52.998;9.116;2024-01-10T00:26:23;-6.00;99.90
33328;DHT22;19692;52.998;9.116;2024-01-10T00:28:49;-6.00;99.90
33328;DHT22;19692;52.998;9.116;2024-01-10T00:31:15;-6.10;99.90
33328;DHT22;19692;52.998;9.116;2024-01-10T00:33:40;-6.10;99.90
33328;DHT22;19692;52.998;9.116;2024-01-10T00:36:07;-6.10;99.90
33328;DHT22;19692;52.998;9.116;2024-01-10T00:38:33;-6.10;99.90
33328;DHT22;19692;52.998;9.116;2024-01-10T00:40:58;-6.20;99.90
33328;DHT22;19692;52.998;9.116;2024-01-10T00:43:24;-6.20;99.90
33328;DHT22;19692;52.998;9.116;2024-01-10T00:45:50;-6.20;99.90
33328;DHT22;19692;52.998;9.116;2024-01-10T00:48:16;-6.30;99.90
33328;DHT22;19692;52.998;9.116;2024-01-10T00:50:45;-6.30;99.90
33328;DHT22;19692;52.998;9.116;2024-01-10T00:53:10;-6.20;99.90
33328;DHT22;19692;52.998;9.116;2024-01-10T00:55:36;-6.20;99.90
33328;DHT22;19692;52.998;9.116;2024-01-10T00:58:02;-6.20;99.90
33328;DHT22;19692;52.998;9.116;2024-01-10T01:00:28;-6.20;99.90
33328;DHT22;19692;52.998;9.116;2024-01-10T01:02:53;-6.10;99.90
33328;DHT22;19692;52.998;9.116;2024-01-10T01:05:19;-6.10;99.90
33328;DHT22;19692;52.998;9.116;2024-01-10T01:07:45;-6.10;99.90
33328;DHT22;19692;52.998;9.116;2024-01-10T01:10:11;-6.10;99.90
33328;DHT22;19692;52.998;9.116;2024-01-10T01:12:37;-6.10;99.90
33328;DHT22;19692;52.998;9.116;2024-01-10T01:15:03;-6.10;99.90
33328;DHT22;19692;52.998;9.116;2024-01-10T01:17:29;-6.10;99.90
33328;DHT22;19692;52.998;9.116;2024-01-10T01:19:55;-6.20;99.90
33328;DHT22;19692;52.998;9.116;2024-01-10T01:22:20;-6.20;99.90
33328;DHT22;19692;52.998;9.116;2024-01-10T01:24:46;-6.20;99.90
33328;DHT22;19692;52.998;9.116;2024-01-10T01:27:12;-6.20;99.90
33328;DHT22;19692;52.998;9.116;2024-01-10T01:29:38;-6.30;99.90
33328;DHT22;19692;52.998;9.116;2024-01-10T01:32:03;-6.20;99.90
33328;DHT22;19692;52.998;9.116;2024-01-10T01:34:30;-6.30;99.90
33328;DHT22;19692;52.998;9.116;2024-01-10T01:36:55;-6.30;99.90
33328;DHT22;19692;52.998;9.116;2024-01-10T01:39:21;-6.40;99.90
33328;DHT22;19692;52.998;9.116;2024-01-10T01:41:47;-6.40;99.90
33328;DHT22;19692;52.998;9.116;2024-01-10T01:44:13;-6.40;99.90
33328;DHT22;19692;52.998;9.116;2024-01-10T01:46:39;-6.40;99.90
33328;DHT22;19692;52.998;9.116;2024-01-10T01:49:06;-6.40;99.90
33328;DHT22;19692;52.998;9.116;2024-01-10T01:51:32;-6.30;99.90
33328;DHT22;19692;52.998;9.116;2024-01-10T01:53:59;-6.30;99.90
33328;DHT22;19692;52.998;9.116;2024-01-10T01:56:25;-6.30;99.90
33328;DHT22;19692;52.998;9.116;2024-01-10T01:58:52;-6.30;99.90
33328;DHT22;19692;52.998;9.116;2024-01-10T02:01:18;-6.30;99.90
33328;DHT22;19692;52.998;9.116;2024-01-10T02:03:47;-6.30;99.90
33328;DHT22;19692;52.998;9.116;2024-01-10T02:06:13;-6.30;99.90
33328;DHT22;19692;52.998;9.116;2024-01-10T02:08:39;-6.40;99.90
33328;DHT22;19692;52.998;9.116;2024-01-10T02:11:05;-6.40;99.90
33328;DHT22;19692;52.998;9.116;2024-01-10T02:13:32;-6.40;99.90
33328;DHT22;19692;52.998;9.116;2024-01-10T02:15:58;-6.40;99.90
33328;DHT22;19692;52.998;9.116;2024-01-10T02:18:24;-6.30;99.90
33328;DHT22;19692;52.998;9.116;2024-01-10T02:20:50;-6.30;99.90
33328;DHT22;19692;52.998;9.116;2024-01-10T02:23:17;-6.20;99.90
33328;DHT22;19692;52.998;9.116;2024-01-10T02:25:43;-6.20;99.90
33328;DHT22;19692;52.998;9.116;2024-01-10T02:28:09;-6.20;99.90
33328;DHT22;19692;52.998;9.116;2024-01-10T02:30:36;-6.20;99.90
33328;DHT22;19692;52.998;9.116;2024-01-10T02:33:02;-6.20;99.90
33328;DHT22;19692;52.998;9.116;2024-01-10T02:35:27;-6.20;99.90
33328;DHT22;19692;52.998;9.116;2024-01-10T02:37:54;-6.20;99.90
33328;DHT22;19692;52.998;9.116;2024-01-10T02:40:23;-6.20;99.90
33328;DHT22;19692;52.998;9.116;2024-01-10T02:42:48;-6.20;99.90
33328;DHT22;19692;52.998;9.116;2024-01-10T02:45:17;-6.30;99.90
33328;DHT22;19692;52.998;9.116;2024-01-10T02:47:45;-6.30;99.90
33328;DHT22;19692;52.998;9.116;2024-01-10T02:50:10;-6.30;99.90
33328;DHT22;19692;52.998;9.116;2024-01-10T02:52:36;-6.30;99.90
33328;DHT22;19692;52.998;9.116;2024-01-10T02:55:02;-6.30;99.90
33328;DHT22;19692;52.998;9.116;2024-01-10T02:57:28;-6.30;99.90
33328;DHT22;19692;52.998;9.116;2024-01-10T02:59:54;-6.30;99.90
33328;DHT22;19692;52.998;9.116;2024-01-10T03:02:20;-6.30;99.90
33328;DHT22;19692;52.998;9.116;2024-01-10T03:04:48;-6.40;99.90
33328;DHT22;19692;52.998;9.116;2024-01-10T03:07:14;-6.40;99.90
33328;DHT22;19692;52.998;9.116;2024-01-10T03:09:39;-6.40;99.90
33328;DHT22;19692;52.998;9.116;2024-01-10T03:12:05;-6.40;99.90
33328;DHT22;19692;52.998;9.116;2024-01-10T03:14:33;-6.40;99.90
33328;DHT22;19692;52.998;9.116;2024-01-10T03:16:59;-6.40;99.90
33328;DHT22;19692;52.998;9.116;2024-01-10T03:19:25;-6.30;99.90
33328;DHT22;19692;52.998;9.116;2024-01-10T03:21:51;-6.40;99.90
33328;DHT22;19692;52.998;9.116;2024-01-10T03:24:17;-6.30;99.90
33328;DHT22;19692;52.998;9.116;2024-01-10T03:26:43;-6.40;99.90
33328;DHT22;19692;52.998;9.116;2024-01-10T03:29:08;-6.40;99.90
33328;DHT22;19692;52.998;9.116;2024-01-10T03:31:34;-6.50;99.90
33328;DHT22;19692;52.998;9.116;2024-01-10T03:34:00;-6.50;99.90
33328;DHT22;19692;52.998;9.116;2024-01-10T03:36:26;-6.50;99.90
33328;DHT22;19692;52.998;9.116;2024-01-10T03:38:51;-6.60;99.90
33328;DHT22;19692;52.998;9.116;2024-01-10T03:41:18;-6.60;99.90
33328;DHT22;19692;52.998;9.116;2024-01-10T03:43:45;-6.60;99.90
33328;DHT22;19692;52.998;9.116;2024-01-10T03:46:11;-6.60;99.90
33328;DHT22;19692;52.998;9.116;2024-01-10T03:48:37;-6.70;99.90
33328;DHT22;19692;52.998;9.116;2024-01-10T03:51:06;-6.80;99.90
33328;DHT22;19692;52.998;9.116;2024-01-10T03:53:31;-6.80;99.90
33328;DHT22;19692;52.998;9.116;2024-01-10T03:55:57;-6.80;99.90
33328;DHT22;19692;52.998;9.116;2024-01-10T03:58:23;-6.80;99.90
33328;DHT22;19692;52.998;9.116;2024-01-10T04:00:49;-6.80;99.90
33328;DHT22;19692;52.998;9.116;2024-01-10T04:03:15;-6.90;99.90
33328;DHT22;19692;52.998;9.116;2024-01-10T04:05:42;-7.00;99.90
33328;DHT22;19692;52.998;9.116;2024-01-10T04:08:07;-7.00;99.90
33328;DHT22;19692;52.998;9.116;2024-01-10T04:10:33;-7.00;99.90
33328;DHT22;19692;52.998;9.116;2024-01-10T04:12:59;-7.10;99.90
33328;DHT22;19692;52.998;9.116;2024-01-10T04:15:24;-7.00;99.90
33328;DHT22;19692;52.998;9.116;2024-01-10T04:17:50;-7.00;99.90
33328;DHT22;19692;52.998;9.116;2024-01-10T04:20:16;-7.00;99.90
33328;DHT22;19692;52.998;9.116;2024-01-10T04:22:41;-7.00;99.90
33328;DHT22;19692;52.998;9.116;2024-01-10T04:25:07;-6.90;99.90
33328;DHT22;19692;52.998;9.116;2024-01-10T04:27:33;-6.90;99.90
33328;DHT22;19692;52.998;9.116;2024-01-10T04:29:59;-6.90;99.90
33328;DHT22;19692;52.998;9.116;2024-01-10T04:32:25;-6.90;99.90
33328;DHT22;19692;52.998;9.116;2024-01-10T04:34:50;-6.80;99.90
33328;DHT22;19692;52.998;9.116;2024-01-10T04:37:17;-6.80;99.90
33328;DHT22;19692;52.998;9.116;2024-01-10T04:39:43;-6.70;99.90
33328;DHT22;19692;52.998;9.116;2024-01-10T04:42:10;-6.80;99.90
33328;DHT22;19692;52.998;9.116;2024-01-10T04:44:37;-6.70;99.90
33328;DHT22;19692;52.998;9.116;2024-01-10T04:47:03;-6.70;99.90
33328;DHT22;19692;52.998;9.116;2024-01-10T04:49:29;-6.70;99.90
33328;DHT22;19692;52.998;9.116;2024-01-10T04:51:55;-6.70;99.90
33328;DHT22;19692;52.998;9.116;2024-01-10T04:54:21;-6.70;99.90
33328;DHT22;19692;52.998;9.116;2024-01-10T04:56:47;-6.70;99.90
33328;DHT22;19692;52.998;9.116;2024-01-10T04:59:12;-6.70;99.90
33328;DHT22;19692;52.998;9.116;2024-01-10T05:01:38;-6.80;99.90
33328;DHT22;19692;52.998;9.116;2024-01-10T05:04:04;-6.80;99.90
33328;DHT22;19692;52.998;9.116;2024-01-10T05:06:30;-6.70;99.90
33328;DHT22;19692;52.998;9.116;2024-01-10T05:08:56;-6.80;99.90
33328;DHT22;19692;52.998;9.116;2024-01-10T05:11:24;-6.80;99.90
33328;DHT22;19692;52.998;9.116;2024-01-10T05:13:51;-6.80;99.90
33328;DHT22;19692;52.998;9.116;2024-01-10T05:16:17;-6.80;99.90
33328;DHT22;19692;52.998;9.116;2024-01-10T05:18:43;-6.70;99.90
33328;DHT22;19692;52.998;9.116;2024-01-10T05:21:09;-6.70;99.90
33328;DHT22;19692;52.998;9.116;2024-01-10T05:23:35;-6.70;99.90
33328;DHT22;19692;52.998;9.116;2024-01-10T05:26:02;-6.70;99.90
33328;DHT22;19692;52.998;9.116;2024-01-10T05:28:28;-6.70;99.90
33328;DHT22;19692;52.998;9.116;2024-01-10T05:30:53;-6.70;99.90
33328;DHT22;19692;52.998;9.116;2024-01-10T05:33:19;-6.70;99.90
33328;DHT22;19692;52.998;9.116;2024-01-10T05:35:45;-6.70;99.90
33328;DHT22;19692;52.998;9.116;2024-01-10T05:38:11;-6.70;99.90
33328;DHT22;19692;52.998;9.116;2024-01-10T05:40:37;-6.70;99.90
33328;DHT22;19692;52.998;9.116;2024-01-10T05:43:02;-6.70;99.90
33328;DHT22;19692;52.998;9.116;2024-01-10T05:45:29;-6.70;99.90
33328;DHT22;19692;52.998;9.116;2024-01-10T05:47:56;-6.70;99.90
33328;DHT22;19692;52.998;9.116;2024-01-10T05:50:23;-6.60;99.90
33328;DHT22;19692;52.998;9.116;2024-01-10T05:52:49;-6.60;99.90
33328;DHT22;19692;52.998;9.116;2024-01-10T05:55:18;-6.60;99.90
33328;DHT22;19692;52.998;9.116;2024-01-10T05:57:44;-6.60;99.90
33328;DHT22;19692;52.998;9.116;2024-01-10T06:00:11;-6.60;99.90
33328;DHT22;19692;52.998;9.116;2024-01-10T06:02:39;-6.60;99.90
33328;DHT22;19692;52.998;9.116;2024-01-10T06:05:11;-6.60;99.90
33328;DHT22;19692;52.998;9.116;2024-01-10T06:07:40;-6.70;99.90
33328;DHT22;19692;52.998;9.116;2024-01-10T06:10:07;-6.70;99.90
33328;DHT22;19692;52.998;9.116;2024-01-10T06:12:33;-6.70;99.90
33328;DHT22;19692;52.998;9.116;2024-01-10T06:14:58;-6.80;99.90
33328;DHT22;19692;52.998;9.116;2024-01-10T06:17:24;-6.80;99.90
33328;DHT22;19692;52.998;9.116;2024-01-10T06:19:50;-6.80;99.90
33328;DHT22;19692;52.998;9.116;2024-01-10T06:22:16;-6.80;99.90
33328;DHT22;19692;52.998;9.116;2024-01-10T06:24:45;-6.80;99.90
33328;DHT22;19692;52.998;9.116;2024-01-10T06:27:11;-6.70;99.90
33328;DHT22;19692;52.998;9.116;2024-01-10T06:29:37;-6.70;99.90
33328;DHT22;19692;52.998;9.116;2024-01-10T06:32:04;-6.70;99.90
33328;DHT22;19692;52.998;9.116;2024-01-10T06:34:31;-6.80;99.90
33328;DHT22;19692;52.998;9.116;2024-01-10T06:36:58;-6.80;99.90
33328;DHT22;19692;52.998;9.116;2024-01-10T06:39:24;-6.80;99.90
33328;DHT22;19692;52.998;9.116;2024-01-10T06:41:49;-6.80;99.90
33328;DHT22;19692;52.998;9.116;2024-01-10T06:44:16;-6.80;99.90
33328;DHT22;19692;52.998;9.116;2024-01-10T06:46:45;-6.80;99.90
33328;DHT22;19692;52.998;9.116;2024-01-10T06:49:11;-6.80;99.90
33328;DHT22;19692;52.998;9.116;2024-01-10T06:51:37;-6.80;99.90
33328;DHT22;19692;52.998;9.116;2024-01-10T06:54:03;-6.80;99.90
33328;DHT22;19692;52.998;9.116;2024-01-10T06:56:30;-6.90;99.90
33328;DHT22;19692;52.998;9.116;2024-01-10T06:59:00;-6.80;99.90
33328;DHT22;19692;52.998;9.116;2024-01-10T07:01:26;-6.80;99.90
33328;DHT22;19692;52.998;9.116;2024-01-10T07:03:53;-6.80;99.90
33328;DHT22;19692;52.998;9.116;2024-01-10T07:06:20;-6.90;99.90
33328;DHT22;19692;52.998;9.116;2024-01-10T07:08:48;-6.90;99.90
33328;DHT22;19692;52.998;9.116;2024-01-10T07:11:14;-6.90;99.90
33328;DHT22;19692;52.998;9.116;2024-01-10T07:13:41;-6.90;99.90
33328;DHT22;19692;52.998;9.116;2024-01-10T07:16:08;-6.90;99.90
33328;DHT22;19692;52.998;9.116;2024-01-10T07:18:34;-6.90;99.90
33328;DHT22;19692;52.998;9.116;2024-01-10T07:20:59;-7.00;99.90
33328;DHT22;19692;52.998;9.116;2024-01-10T07:23:26;-7.00;99.90
33328;DHT22;19692;52.998;9.116;2024-01-10T07:25:52;-7.00;99.90
33328;DHT22;19692;52.998;9.116;2024-01-10T07:28:18;-7.00;99.90
33328;DHT22;19692;52.998;9.116;2024-01-10T07:30:44;-6.90;99.90
33328;DHT22;19692;52.998;9.116;2024-01-10T07:33:11;-7.00;99.90
33328;DHT22;19692;52.998;9.116;2024-01-10T07:35:37;-6.90;99.90
33328;DHT22;19692;52.998;9.116;2024-01-10T07:38:04;-6.90;99.90
33328;DHT22;19692;52.998;9.116;2024-01-10T07:40:33;-7.00;99.90
33328;DHT22;19692;52.998;9.116;2024-01-10T07:42:59;-6.90;99.90
33328;DHT22;19692;52.998;9.116;2024-01-10T07:45:25;-7.00;99.90
33328;DHT22;19692;52.998;9.116;2024-01-10T07:47:51;-6.90;99.90
33328;DHT22;19692;52.998;9.116;2024-01-10T07:50:17;-6.90;99.90
33328;DHT22;19692;52.998;9.116;2024-01-10T07:52:44;-6.90;99.90
33328;DHT22;19692;52.998;9.116;2024-01-10T07:55:11;-7.00;99.90
33328;DHT22;19692;52.998;9.116;2024-01-10T07:57:38;-7.00;99.90
33328;DHT22;19692;52.998;9.116;2024-01-10T08:00:05;-6.90;99.90
33328;DHT22;19692;52.998;9.116;2024-01-10T08:02:34;-6.90;99.90
33328;DHT22;19692;52.998;9.116;2024-01-10T08:05:01;-6.90;99.90
33328;DHT22;19692;52.998;9.116;2024-01-10T08:07:31;-6.90;99.90
33328;DHT22;19692;52.998;9.116;2024-01-10T08:09:59;-6.90;99.90
33328;DHT22;19692;52.998;9.116;2024-01-10T08:12:25;-6.90;99.90
33328;DHT22;19692;52.998;9.116;2024-01-10T08:14:51;-6.80;99.90
33328;DHT22;19692;52.998;9.116;2024-01-10T08:17:16;-6.80;99.90
33328;DHT22;19692;52.998;9.116;2024-01-10T08:19:42;-6.80;99.90
33328;DHT22;19692;52.998;9.116;2024-01-10T08:22:08;-6.70;99.90
33328;DHT22;19692;52.998;9.116;2024-01-10T08:24:34;-6.70;99.90
33328;DHT22;19692;52.998;9.116;2024-01-10T08:26:59;-6.70;99.90
33328;DHT22;19692;52.998;9.116;2024-01-10T08:29:25;-6.60;99.90
33328;DHT22;19692;52.998;9.116;2024-01-10T08:31:56;-6.60;99.90
33328;DHT22;19692;52.998;9.116;2024-01-10T08:34:22;-6.60;99.90
33328;DHT22;19692;52.998;9.116;2024-01-10T08:36:48;-6.60;99.90
33328;DHT22;19692;52.998;9.116;2024-01-10T08:39:17;-6.60;99.90
33328;DHT22;19692;52.998;9.116;2024-01-10T08:41:43;-6.50;99.90
33328;DHT22;19692;52.998;9.116;2024-01-10T08:44:12;-6.50;99.90
33328;DHT22;19692;52.998;9.116;2024-01-10T08:46:39;-6.50;99.90
33328;DHT22;19692;52.998;9.116;2024-01-10T08:49:04;-6.50;99.90
33328;DHT22;19692;52.998;9.116;2024-01-10T08:51:30;-6.50;99.90
33328;DHT22;19692;52.998;9.116;2024-01-10T08:53:56;-6.40;99.90
33328;DHT22;19692;52.998;9.116;2024-01-10T08:56:22;-6.40;99.90
33328;DHT22;19692;52.998;9.116;2024-01-10T08:58:49;-6.30;99.90
33328;DHT22;19692;52.998;9.116;2024-01-10T09:01:15;-6.30;99.90
33328;DHT22;19692;52.998;9.116;2024-01-10T09:03:40;-6.20;99.90
33328;DHT22;19692;52.998;9.116;2024-01-10T09:06:06;-6.20;99.90
33328;DHT22;19692;52.998;9.116;2024-01-10T09:08:35;-6.10;99.90
33328;DHT22;19692;52.998;9.116;2024-01-10T09:11:01;-6.00;99.90
33328;DHT22;19692;52.998;9.116;2024-01-10T09:13:26;-6.00;99.90
33328;DHT22;19692;52.998;9.116;2024-01-10T09:15:52;-5.90;99.90
33328;DHT22;19692;52.998;9.116;2024-01-10T09:18:18;-5.80;99.90
33328;DHT22;19692;52.998;9.116;2024-01-10T09:20:44;-5.80;99.90
33328;DHT22;19692;52.998;9.116;2024-01-10T09:23:10;-5.70;99.90
33328;DHT22;19692;52.998;9.116;2024-01-10T09:25:36;-5.50;99.90
33328;DHT22;19692;52.998;9.116;2024-01-10T09:28:04;-5.60;99.90
33328;DHT22;19692;52.998;9.116;2024-01-10T09:30:30;-5.50;99.90
33328;DHT22;19692;52.998;9.116;2024-01-10T09:32:56;-5.40;99.90
33328;DHT22;19692;52.998;9.116;2024-01-10T09:35:22;-5.40;99.90
33328;DHT22;19692;52.998;9.116;2024-01-10T09:37:48;-5.30;99.90
33328;DHT22;19692;52.998;9.116;2024-01-10T09:40:15;-5.20;99.90
33328;DHT22;19692;52.998;9.116;2024-01-10T09:42:43;-5.00;99.90
33328;DHT22;19692;52.998;9.116;2024-01-10T09:45:10;-4.90;99.90
33328;DHT22;19692;52.998;9.116;2024-01-10T09:47:39;-4.80;99.90
33328;DHT22;19692;52.998;9.116;2024-01-10T09:50:08;-4.70;99.90
33328;DHT22;19692;52.998;9.116;2024-01-10T09:52:41;-4.70;99.90
33328;DHT22;19692;52.998;9.116;2024-01-10T09:55:16;-4.50;99.90
33328;DHT22;19692;52.998;9.116;2024-01-10T09:57:42;-4.20;99.90
33328;DHT22;19692;52.998;9.116;2024-01-10T10:00:11;-4.00;99.90
33328;DHT22;19692;52.998;9.116;2024-01-10T10:02:39;-3.80;99.90
33328;DHT22;19692;52.998;9.116;2024-01-10T10:05:11;-3.60;99.90
33328;DHT22;19692;52.998;9.116;2024-01-10T10:07:51;-3.30;99.90
33328;DHT22;19692;52.998;9.116;2024-01-10T10:10:20;-3.20;99.90
33328;DHT22;19692;52.998;9.116;2024-01-10T10:12:48;-2.90;99.90
33328;DHT22;19692;52.998;9.116;2024-01-10T10:15:18;-2.80;99.90
33328;DHT22;19692;52.998;9.116;2024-01-10T10:17:48;-2.60;99.90
33328;DHT22;19692;52.998;9.116;2024-01-10T10:20:26;-2.40;99.90
33328;DHT22;19692;52.998;9.116;2024-01-10T10:23:02;-2.20;99.90
33328;DHT22;19692;52.998;9.116;2024-01-10T10:25:31;-1.90;99.90
33328;DHT22;19692;52.998;9.116;2024-01-10T10:28:02;-1.80;99.90
33328;DHT22;19692;52.998;9.116;2024-01-10T10:30:29;-1.40;99.90
33328;DHT22;19692;52.998;9.116;2024-01-10T10:32:56;-1.20;99.90
33328;DHT22;19692;52.998;9.116;2024-01-10T10:35:22;-0.90;99.90
33328;DHT22;19692;52.998;9.116;2024-01-10T10:37:58;-0.60;99.90
33328;DHT22;19692;52.998;9.116;2024-01-10T10:40:24;-0.50;99.90
33328;DHT22;19692;52.998;9.116;2024-01-10T10:42:55;-0.40;99.90
33328;DHT22;19692;52.998;9.116;2024-01-10T10:45:23;-0.50;99.90
33328;DHT22;19692;52.998;9.116;2024-01-10T10:47:58;-0.30;99.90
33328;DHT22;19692;52.998;9.116;2024-01-10T10:50:30;0.00;99.90
33328;DHT22;19692;52.998;9.116;2024-01-10T10:52:59;0.10;99.90
33328;DHT22;19692;52.998;9.116;2024-01-10T10:55:26;0.30;99.90
33328;DHT22;19692;52.998;9.116;2024-01-10T10:57:54;0.60;99.90
33328;DHT22;19692;52.998;9.116;2024-01-10T11:00:21;0.90;99.90
33328;DHT22;19692;52.998;9.116;2024-01-10T11:02:53;0.90;99.90
33328;DHT22;19692;52.998;9.116;2024-01-10T11:05:20;1.00;99.90
33328;DHT22;19692;52.998;9.116;2024-01-10T11:07:48;1.00;99.90
33328;DHT22;19692;52.998;9.116;2024-01-10T11:10:17;1.10;99.90
33328;DHT22;19692;52.998;9.116;2024-01-10T11:24:58;1.50;99.90
33328;DHT22;19692;52.998;9.116;2024-01-10T11:27:26;1.70;99.90
33328;DHT22;19692;52.998;9.116;2024-01-10T11:29:52;1.90;99.90
33328;DHT22;19692;52.998;9.116;2024-01-10T11:32:22;2.10;99.90
33328;DHT22;19692;52.998;9.116;2024-01-10T11:34:55;2.10;99.90
33328;DHT22;19692;52.998;9.116;2024-01-10T11:37:22;2.00;99.90
33328;DHT22;19692;52.998;9.116;2024-01-10T11:39:50;2.00;99.90
33328;DHT22;19692;52.998;9.116;2024-01-10T11:42:23;2.10;99.90
33328;DHT22;19692;52.998;9.116;2024-01-10T11:44:50;2.10;99.90
33328;DHT22;19692;52.998;9.116;2024-01-10T11:47:19;2.20;99.90
33328;DHT22;19692;52.998;9.116;2024-01-10T11:49:56;2.40;99.90
33328;DHT22;19692;52.998;9.116;2024-01-10T11:52:25;2.70;99.90
33328;DHT22;19692;52.998;9.116;2024-01-10T11:54:59;2.60;99.90
33328;DHT22;19692;52.998;9.116;2024-01-10T11:57:28;2.70;99.90
33328;DHT22;19692;52.998;9.116;2024-01-10T11:59:58;2.80;99.90
33328;DHT22;19692;52.998;9.116;2024-01-10T12:02:29;3.00;99.90
33328;DHT22;19692;52.998;9.116;2024-01-10T12:04:55;3.10;99.90
33328;DHT22;19692;52.998;9.116;2024-01-10T12:07:21;3.10;99.90
33328;DHT22;19692;52.998;9.116;2024-01-10T12:09:47;3.10;99.90
33328;DHT22;19692;52.998;9.116;2024-01-10T12:12:13;3.20;99.90
33328;DHT22;19692;52.998;9.116;2024-01-10T12:14:40;3.40;99.90
33328;DHT22;19692;52.998;9.116;2024-01-10T12:17:06;3.60;99.90
33328;DHT22;19692;52.998;9.116;2024-01-10T12:19:35;3.70;99.90
33328;DHT22;19692;52.998;9.116;2024-01-10T12:22:05;3.80;99.90
33328;DHT22;19692;52.998;9.116;2024-01-10T12:24:31;3.80;99.90
33328;DHT22;19692;52.998;9.116;2024-01-10T12:26:57;3.60;99.90
33328;DHT22;19692;52.998;9.116;2024-01-10T12:29:23;3.60;99.90
33328;DHT22;19692;52.998;9.116;2024-01-10T12:31:51;3.60;99.90
33328;DHT22;19692;52.998;9.116;2024-01-10T12:34:16;3.80;99.90
33328;DHT22;19692;52.998;9.116;2024-01-10T12:36:42;4.00;99.90
33328;DHT22;19692;52.998;9.116;2024-01-10T12:39:09;4.00;99.90
33328;DHT22;19692;52.998;9.116;2024-01-10T12:41:36;4.20;99.90
33328;DHT22;19692;52.998;9.116;2024-01-10T12:44:02;4.40;99.90
33328;DHT22;19692;52.998;9.116;2024-01-10T12:46:30;4.20;99.90
33328;DHT22;19692;52.998;9.116;2024-01-10T12:49:02;4.20;99.90
33328;DHT22;19692;52.998;9.116;2024-01-10T12:51:34;4.10;99.90
33328;DHT22;19692;52.998;9.116;2024-01-10T12:54:03;4.30;99.90
33328;DHT22;19692;52.998;9.116;2024-01-10T12:56:31;4.40;99.90
33328;DHT22;19692;52.998;9.116;2024-01-10T12:58:58;4.50;99.90
33328;DHT22;19692;52.998;9.116;2024-01-10T13:01:24;4.60;99.90
33328;DHT22;19692;52.998;9.116;2024-01-10T13:03:50;4.70;99.90
33328;DHT22;19692;52.998;9.116;2024-01-10T13:06:16;5.00;99.90
33328;DHT22;19692;52.998;9.116;2024-01-10T13:08:44;5.00;99.90
33328;DHT22;19692;52.998;9.116;2024-01-10T13:11:11;4.90;99.90
33328;DHT22;19692;52.998;9.116;2024-01-10T13:13:37;4.80;99.90
33328;DHT22;19692;52.998;9.116;2024-01-10T13:16:04;4.80;99.90
33328;DHT22;19692;52.998;9.116;2024-01-10T13:18:30;4.50;99.90
33328;DHT22;19692;52.998;9.116;2024-01-10T13:20:56;4.30;99.90
33328;DHT22;19692;52.998;9.116;2024-01-10T13:23:22;4.10;99.90
33328;DHT22;19692;52.998;9.116;2024-01-10T13:25:52;4.00;99.90
33328;DHT22;19692;52.998;9.116;2024-01-10T13:28:21;4.10;99.90
33328;DHT22;19692;52.998;9.116;2024-01-10T13:30:46;4.20;99.90
33328;DHT22;19692;52.998;9.116;2024-01-10T13:33:12;4.20;99.90
33328;DHT22;19692;52.998;9.116;2024-01-10T13:35:39;3.90;99.90
33328;DHT22;19692;52.998;9.116;2024-01-10T13:38:05;3.90;99.90
33328;DHT22;19692;52.998;9.116;2024-01-10T13:40:31;3.80;99.90
33328;DHT22;19692;52.998;9.116;2024-01-10T13:43:00;4.00;99.90
33328;DHT22;19692;52.998;9.116;2024-01-10T13:45:28;3.80;99.90
33328;DHT22;19692;52.998;9.116;2024-01-10T13:47:55;3.60;99.90
33328;DHT22;19692;52.998;9.116;2024-01-10T13:50:20;3.50;99.90
33328;DHT22;19692;52.998;9.116;2024-01-10T13:52:47;3.50;99.90
33328;DHT22;19692;52.998;9.116;2024-01-10T13:55:12;3.60;99.90
33328;DHT22;19692;52.998;9.116;2024-01-10T13:57:38;3.80;99.90
33328;DHT22;19692;52.998;9.116;2024-01-10T14:00:06;3.80;99.90
33328;DHT22;19692;52.998;9.116;2024-01-10T14:02:40;3.80;99.90
33328;DHT22;19692;52.998;9.116;2024-01-10T14:05:06;3.70;99.90
33328;DHT22;19692;52.998;9.116;2024-01-10T14:07:34;3.50;99.90
33328;DHT22;19692;52.998;9.116;2024-01-10T14:10:00;3.30;99.90
33328;DHT22;19692;52.998;9.116;2024-01-10T14:12:27;3.10;99.90
33328;DHT22;19692;52.998;9.116;2024-01-10T14:14:54;3.00;99.90
33328;DHT22;19692;52.998;9.116;2024-01-10T14:17:21;2.90;99.90
33328;DHT22;19692;52.998;9.116;2024-01-10T14:19:47;2.90;99.90
33328;DHT22;19692;52.998;9.116;2024-01-10T14:22:15;2.90;99.90
33328;DHT22;19692;52.998;9.116;2024-01-10T14:24:43;2.70;99.90
33328;DHT22;19692;52.998;9.116;2024-01-10T14:27:09;2.50;99.90
33328;DHT22;19692;52.998;9.116;2024-01-10T14:29:35;2.20;99.90
33328;DHT22;19692;52.998;9.116;2024-01-10T14:32:01;2.00;99.90
33328;DHT22;19692;52.998;9.116;2024-01-10T14:34:26;1.90;99.90
33328;DHT22;19692;52.998;9.116;2024-01-10T14:36:52;1.50;99.90
33328;DHT22;19692;52.998;9.116;2024-01-10T14:39:18;1.20;99.90
33328;DHT22;19692;52.998;9.116;2024-01-10T14:41:44;0.80;99.90
33328;DHT22;19692;52.998;9.116;2024-01-10T14:44:10;0.40;99.90
33328;DHT22;19692;52.998;9.116;2024-01-10T14:46:36;0.10;99.90
33328;DHT22;19692;52.998;9.116;2024-01-10T14:49:02;-0.10;99.90
33328;DHT22;19692;52.998;9.116;2024-01-10T14:51:27;-0.40;99.90
33328;DHT22;19692;52.998;9.116;2024-01-10T14:53:53;-0.60;99.90
33328;DHT22;19692;52.998;9.116;2024-01-10T14:56:19;-0.60;99.90
33328;DHT22;19692;52.998;9.116;2024-01-10T14:58:45;-0.80;99.90
33328;DHT22;19692;52.998;9.116;2024-01-10T15:01:11;-0.90;99.90
33328;DHT22;19692;52.998;9.116;2024-01-10T15:03:37;-1.10;99.90
33328;DHT22;19692;52.998;9.116;2024-01-10T15:06:06;-1.10;99.90
33328;DHT22;19692;52.998;9.116;2024-01-10T15:08:32;-1.20;99.90
33328;DHT22;19692;52.998;9.116;2024-01-10T15:11:02;-1.30;99.90
33328;DHT22;19692;52.998;9.116;2024-01-10T15:13:28;-1.40;99.90
33328;DHT22;19692;52.998;9.116;2024-01-10T15:15:53;-1.40;99.90
33328;DHT22;19692;52.998;9.116;2024-01-10T15:18:19;-1.50;99.90
33328;DHT22;19692;52.998;9.116;2024-01-10T15:20:46;-1.50;99.90
33328;DHT22;19692;52.998;9.116;2024-01-10T15:23:11;-1.70;99.90
33328;DHT22;19692;52.998;9.116;2024-01-10T15:25:37;-1.80;99.90
33328;DHT22;19692;52.998;9.116;2024-01-10T15:28:03;-1.90;99.90
33328;DHT22;19692;52.998;9.116;2024-01-10T15:30:29;-1.90;99.90
33328;DHT22;19692;52.998;9.116;2024-01-10T15:32:57;-2.00;99.90
33328;DHT22;19692;52.998;9.116;2024-01-10T15:35:24;-2.10;99.90
33328;DHT22;19692;52.998;9.116;2024-01-10T15:37:50;-2.10;99.90
33328;DHT22;19692;52.998;9.116;2024-01-10T15:40:15;-2.20;99.90
33328;DHT22;19692;52.998;9.116;2024-01-10T15:42:41;-2.20;99.90
33328;DHT22;19692;52.998;9.116;2024-01-10T15:45:10;-2.20;99.90